createdAt,value
2024-01-30T00:02:20.106Z,11.16
2024-01-30T00:06:22.233Z,11.17
2024-01-30T00:10:23.823Z,10.76
2024-01-30T00:14:25.437Z,10.74
2024-01-30T00:18:26.899Z,10.86
2024-01-30T00:22:31.440Z,11.13
2024-01-30T00:26:32.911Z,11.11
2024-01-30T00:30:34.354Z,10.85
2024-01-30T00:34:36.012Z,11.10
2024-01-30T00:38:38.585Z,10.47
2024-01-30T00:42:40.057Z,10.76
2024-01-30T00:46:41.541Z,10.96
2024-01-30T00:50:43.025Z,10.68
2024-01-30T00:54:45.067Z,10.70
2024-01-30T00:58:46.934Z,11.00
2024-01-30T01:02:48.496Z,10.71
2024-01-30T01:06:50.326Z,11.01
2024-01-30T01:10:51.862Z,10.65
2024-01-30T01:14:53.486Z,10.92
2024-01-30T01:18:55.032Z,10.98
2024-01-30T01:22:56.525Z,10.71
2024-01-30T01:26:59.797Z,10.95
2024-01-30T01:31:06.279Z,10.94
2024-01-30T01:35:08.163Z,10.74
2024-01-30T01:39:09.864Z,10.61
2024-01-30T01:43:11.401Z,10.95
2024-01-30T01:47:12.917Z,10.87
2024-01-30T01:51:15.380Z,10.61
2024-01-30T01:55:18.695Z,10.52
2024-01-30T01:59:21.457Z,10.54
2024-01-30T02:03:23.274Z,10.87
2024-01-30T02:07:25.473Z,10.51
2024-01-30T02:11:27.457Z,10.87
2024-01-30T02:15:30.194Z,10.71
2024-01-30T02:19:31.785Z,10.47
2024-01-30T02:23:35.448Z,10.57
2024-01-30T02:27:37.281Z,10.72
2024-01-30T02:31:38.704Z,10.77
2024-01-30T02:35:40.394Z,10.55
2024-01-30T02:39:41.874Z,10.33
2024-01-30T02:43:43.344Z,10.60
2024-01-30T02:47:45.037Z,10.80
2024-01-30T02:51:46.564Z,10.77
2024-01-30T02:55:48.256Z,10.48
2024-01-30T02:59:49.810Z,10.46
2024-01-30T03:03:51.516Z,10.75
2024-01-30T03:07:53.161Z,10.77
2024-01-30T03:11:54.673Z,10.66
2024-01-30T03:15:56.125Z,10.75
2024-01-30T03:19:57.864Z,10.75
2024-01-30T03:23:59.409Z,10.33
2024-01-30T03:28:00.963Z,10.57
2024-01-30T03:32:02.497Z,10.41
2024-01-30T03:36:05.854Z,10.65
2024-01-30T03:40:07.965Z,10.58
2024-01-30T03:44:09.514Z,10.57
2024-01-30T03:48:11.042Z,10.70
2024-01-30T03:52:12.566Z,10.63
2024-01-30T03:56:15.018Z,10.41
2024-01-30T04:00:16.856Z,10.35
2024-01-30T04:04:21.776Z,10.27
2024-01-30T04:08:23.746Z,10.65
2024-01-30T04:12:25.505Z,10.63
2024-01-30T04:16:27.162Z,10.65
2024-01-30T04:20:28.822Z,10.57
2024-01-30T04:24:30.306Z,10.36
2024-01-30T04:28:31.956Z,10.43
2024-01-30T04:32:33.828Z,10.31
2024-01-30T04:36:35.286Z,10.23
2024-01-30T04:40:36.817Z,10.62
2024-01-30T04:44:38.381Z,10.55
2024-01-30T04:48:40.066Z,10.55
2024-01-30T04:52:41.673Z,10.61
2024-01-30T04:56:43.124Z,10.48
2024-01-30T05:00:44.888Z,10.25
2024-01-30T05:04:46.667Z,10.58
2024-01-30T05:08:48.179Z,10.51
2024-01-30T05:12:49.749Z,10.60
2024-01-30T05:16:51.221Z,10.57
2024-01-30T05:20:52.724Z,10.33
2024-01-30T05:24:54.273Z,10.59
2024-01-30T05:28:55.835Z,10.56
2024-01-30T05:32:57.450Z,10.13
2024-01-30T05:36:58.996Z,10.42
2024-01-30T05:41:00.496Z,10.25
2024-01-30T05:45:01.962Z,10.23
2024-01-30T05:49:03.564Z,10.28
2024-01-30T05:53:05.142Z,10.19
2024-01-30T05:57:06.754Z,10.21
2024-01-30T06:01:09.816Z,10.56
2024-01-30T06:05:11.501Z,10.54
2024-01-30T06:09:14.140Z,10.29
2024-01-30T06:13:15.785Z,10.16
2024-01-30T06:17:17.641Z,10.51
2024-01-30T06:21:19.489Z,10.57
2024-01-30T06:25:21.107Z,10.56
2024-01-30T06:29:23.058Z,10.20
2024-01-30T06:33:24.642Z,10.50
2024-01-30T06:37:26.195Z,10.15
2024-01-30T06:41:27.834Z,9.96
2024-01-30T06:45:29.284Z,10.24
2024-01-30T06:49:30.906Z,10.45
2024-01-30T06:53:32.474Z,10.26
2024-01-30T06:57:33.983Z,10.20
2024-01-30T07:01:35.543Z,10.50
2024-01-30T07:05:37.165Z,10.48
2024-01-30T07:09:38.615Z,10.46
2024-01-30T07:13:40.074Z,10.18
2024-01-30T07:17:42.463Z,10.50
2024-01-30T07:21:44.010Z,10.46
2024-01-30T07:25:48.409Z,10.48
2024-01-30T07:29:51.402Z,10.39
2024-01-30T07:33:52.902Z,10.17
2024-01-30T07:37:54.413Z,10.52
2024-01-30T07:41:55.861Z,10.50
2024-01-30T07:45:57.548Z,10.13
2024-01-30T07:49:59.126Z,10.43
2024-01-30T07:54:00.725Z,10.55
2024-01-30T07:58:02.836Z,10.47
2024-01-30T08:02:04.761Z,10.52
2024-01-30T08:06:07.790Z,10.27
2024-01-30T08:10:09.962Z,10.17
2024-01-30T08:14:11.783Z,10.50
2024-01-30T08:18:13.587Z,10.47
2024-01-30T08:22:15.147Z,10.42
2024-01-30T08:26:16.791Z,10.48
2024-01-30T08:30:18.377Z,10.26
2024-01-30T08:34:20.356Z,10.33
2024-01-30T08:38:21.824Z,10.16
2024-01-30T08:42:24.063Z,10.50
2024-01-30T08:46:25.904Z,10.44
2024-01-30T08:50:27.874Z,10.25
2024-01-30T08:54:29.484Z,10.17
2024-01-30T08:58:31.668Z,10.52
2024-01-30T09:02:34.378Z,10.33
2024-01-30T09:06:35.898Z,10.58
2024-01-30T09:10:38.416Z,10.32
2024-01-30T09:14:41.723Z,10.44
2024-01-30T09:18:43.436Z,10.78
2024-01-30T09:22:44.972Z,10.55
2024-01-30T09:26:46.507Z,10.51
2024-01-30T09:30:48.090Z,10.76
2024-01-30T09:34:49.783Z,10.57
2024-01-30T09:38:51.557Z,10.78
2024-01-30T09:42:53.227Z,10.51
2024-01-30T09:46:54.834Z,10.50
2024-01-30T09:50:58.508Z,10.56
2024-01-30T09:55:02.258Z,10.52
2024-01-30T09:59:03.828Z,10.84
2024-01-30T10:03:05.943Z,10.76
2024-01-30T10:07:10.336Z,10.56
2024-01-30T10:11:12.275Z,10.54
2024-01-30T10:15:15.285Z,10.75
2024-01-30T10:19:16.844Z,10.81
2024-01-30T10:23:20.161Z,10.54
2024-01-30T10:27:27.858Z,10.77
2024-01-30T10:31:29.488Z,10.66
2024-01-30T10:35:31.143Z,10.61
2024-01-30T10:39:35.185Z,10.63
2024-01-30T10:43:39.302Z,10.93
2024-01-30T10:47:49.586Z,11.00
2024-01-30T10:51:52.958Z,11.01
2024-01-30T10:55:56.360Z,10.18
2024-01-30T10:59:59.532Z,10.78
2024-01-30T11:04:01.188Z,10.88
2024-01-30T11:08:15.175Z,10.82
2024-01-30T11:12:16.789Z,10.79
2024-01-30T11:16:18.294Z,10.81
2024-01-30T11:20:26.510Z,10.87
2024-01-30T11:24:28.794Z,11.02
2024-01-30T11:28:35.800Z,11.18
2024-01-30T11:32:38.124Z,11.31
2024-01-30T11:36:44.147Z,11.27
2024-01-30T11:40:46.990Z,11.22
2024-01-30T11:44:50.142Z,11.30
2024-01-30T11:48:53.196Z,11.31
2024-01-30T11:52:55.622Z,11.24
2024-01-30T11:56:57.058Z,11.22
2024-01-30T12:00:59.291Z,11.17
2024-01-30T12:05:05.863Z,11.04
2024-01-30T12:09:11.076Z,11.05
2024-01-30T12:13:13.726Z,11.13
2024-01-30T12:17:25.889Z,11.16
2024-01-30T12:21:27.608Z,11.34
2024-01-30T12:25:29.411Z,11.13
2024-01-30T12:29:36.274Z,11.36
2024-01-30T12:33:40.003Z,11.16
2024-01-30T12:37:43.750Z,11.39
2024-01-30T12:41:45.392Z,11.39
2024-01-30T12:45:48.155Z,11.30
2024-01-30T12:49:49.876Z,11.54
2024-01-30T12:53:51.497Z,11.59
2024-01-30T12:57:53.022Z,11.37
2024-01-30T13:01:55.010Z,11.43
2024-01-30T13:05:56.656Z,11.32
2024-01-30T13:10:03.960Z,11.14
2024-01-30T13:14:05.568Z,11.39
2024-01-30T13:18:07.568Z,11.33
2024-01-30T13:22:09.169Z,11.67
2024-01-30T13:26:10.673Z,11.47
2024-01-30T13:30:12.562Z,11.39
2024-01-30T13:34:15.063Z,11.43
2024-01-30T13:38:16.950Z,11.68
2024-01-30T13:42:18.524Z,11.69
2024-01-30T13:46:20.184Z,11.73
2024-01-30T13:50:21.666Z,11.71
2024-01-30T13:54:23.821Z,11.74
2024-01-30T13:58:25.359Z,11.71
2024-01-30T14:02:27.125Z,11.50
2024-01-30T14:06:28.931Z,11.79
2024-01-30T14:10:30.719Z,11.84
2024-01-30T14:14:32.248Z,11.72
2024-01-30T14:18:33.729Z,11.55
2024-01-30T14:22:35.407Z,11.92
2024-01-30T14:26:37.809Z,11.56
2024-01-30T14:30:39.369Z,11.60
2024-01-30T14:34:41.083Z,11.61
2024-01-30T14:38:43.657Z,11.90
2024-01-30T14:42:45.717Z,11.97
2024-01-30T14:46:47.370Z,11.99
2024-01-30T14:50:48.955Z,11.93
2024-01-30T14:54:50.599Z,12.04
2024-01-30T14:58:53.337Z,12.07
2024-01-30T15:02:55.008Z,12.06
2024-01-30T15:06:56.908Z,11.82
2024-01-30T15:11:00.006Z,12.02
2024-01-30T15:15:02.005Z,11.25
2024-01-30T15:19:05.926Z,11.58
2024-01-30T15:23:07.772Z,12.18
2024-01-30T15:27:09.317Z,11.95
2024-01-30T15:31:10.930Z,12.05
2024-01-30T15:35:12.595Z,12.23
2024-01-30T15:39:16.307Z,11.88
2024-01-30T15:43:17.889Z,12.28
2024-01-30T15:47:19.501Z,12.15
2024-01-30T15:51:20.956Z,12.27
2024-01-30T15:55:22.532Z,12.35
2024-01-30T15:59:24.142Z,12.31
2024-01-30T16:03:27.822Z,12.34
2024-01-30T16:07:32.352Z,12.37
2024-01-30T16:11:33.952Z,12.12
2024-01-30T16:15:35.740Z,12.09
2024-01-30T16:19:37.323Z,12.37
2024-01-30T16:23:38.982Z,12.20
2024-01-30T16:27:40.795Z,12.03
2024-01-30T16:31:42.341Z,12.16
2024-01-30T16:35:46.748Z,12.45
2024-01-30T16:39:49.513Z,12.45
2024-01-30T16:43:51.017Z,12.43
2024-01-30T16:47:52.548Z,12.12
2024-01-30T16:51:54.120Z,12.14
2024-01-30T16:55:55.679Z,12.03
2024-01-30T16:59:57.401Z,12.42
2024-01-30T17:03:58.894Z,12.10
2024-01-30T17:08:00.960Z,12.20
2024-01-30T17:12:04.116Z,12.25
2024-01-30T17:16:05.900Z,12.40
2024-01-30T17:20:08.786Z,12.49
2024-01-30T17:24:12.176Z,12.51
2024-01-30T17:28:14.505Z,12.16
2024-01-30T17:32:16.046Z,12.13
2024-01-30T17:36:17.624Z,12.14
2024-01-30T17:40:19.926Z,12.56
2024-01-30T17:44:22.011Z,12.47
2024-01-30T17:48:23.736Z,12.30
2024-01-30T17:52:25.473Z,12.43
2024-01-30T17:56:27.106Z,12.58
2024-01-30T18:00:28.728Z,12.59
2024-01-30T18:04:30.703Z,12.35
2024-01-30T18:08:35.517Z,12.29
2024-01-30T18:12:37.086Z,12.59
2024-01-30T18:16:38.673Z,12.54
2024-01-30T18:20:41.228Z,12.66
2024-01-30T18:24:43.567Z,12.47
2024-01-30T18:28:45.418Z,12.61
2024-01-30T18:32:47.338Z,12.67
2024-01-30T18:36:48.881Z,12.63
2024-01-30T18:40:50.552Z,12.63
2024-01-30T18:44:52.035Z,12.44
2024-01-30T18:48:53.746Z,12.37
2024-01-30T18:52:55.361Z,12.63
2024-01-30T18:56:56.832Z,12.38
2024-01-30T19:00:58.447Z,12.72
2024-01-30T19:05:01.290Z,12.42
2024-01-30T19:09:03.525Z,12.39
2024-01-30T19:13:06.579Z,12.48
2024-01-30T19:17:08.163Z,12.42
2024-01-30T19:21:09.726Z,12.75
2024-01-30T19:25:11.332Z,12.76
2024-01-30T19:29:12.812Z,12.74
2024-01-30T19:33:14.276Z,12.68
2024-01-30T19:37:15.755Z,12.44
2024-01-30T19:41:17.333Z,12.79
2024-01-30T19:45:18.933Z,12.70
2024-01-30T19:49:21.549Z,12.60
2024-01-30T19:53:24.293Z,12.64
2024-01-30T19:57:25.820Z,12.80
2024-01-30T20:01:27.584Z,12.55
2024-01-30T20:05:29.308Z,12.56
2024-01-30T20:09:30.883Z,12.55
2024-01-30T20:13:33.058Z,12.54
2024-01-30T20:17:34.756Z,12.80
2024-01-30T20:21:37.112Z,12.75
2024-01-30T20:25:38.672Z,12.88
2024-01-30T20:29:40.159Z,12.89
2024-01-30T20:33:41.959Z,12.85
2024-01-30T20:37:43.579Z,12.57
2024-01-30T20:41:45.981Z,11.99
2024-01-30T20:45:47.609Z,12.85
2024-01-30T20:49:49.240Z,12.53
2024-01-30T20:53:50.699Z,12.78
2024-01-30T20:57:52.384Z,12.73
2024-01-30T21:01:53.996Z,12.44
2024-01-30T21:05:56.445Z,12.75
2024-01-30T21:09:58.056Z,12.75
2024-01-30T21:13:59.672Z,12.45
2024-01-30T21:18:01.696Z,12.73
2024-01-30T21:22:03.287Z,12.45
2024-01-30T21:26:05.034Z,12.44
2024-01-30T21:30:07.764Z,12.77
2024-01-30T21:34:09.315Z,12.70
2024-01-30T21:38:10.808Z,12.39
2024-01-30T21:42:12.424Z,12.38
2024-01-30T21:46:24.060Z,12.58
2024-01-30T21:50:25.657Z,12.36
2024-01-30T21:54:27.137Z,12.63
2024-01-30T21:58:28.711Z,12.51
2024-01-30T22:02:30.199Z,12.74
2024-01-30T22:06:31.811Z,12.74
2024-01-30T22:10:33.460Z,12.39
2024-01-30T22:14:36.375Z,12.34
2024-01-30T22:18:38.031Z,12.38
2024-01-30T22:22:39.512Z,12.73
2024-01-30T22:26:42.691Z,12.74
2024-01-30T22:30:44.330Z,12.66
2024-01-30T22:34:45.930Z,12.50
2024-01-30T22:38:47.411Z,12.68
2024-01-30T22:42:48.905Z,12.67
2024-01-30T22:46:50.490Z,12.72
2024-01-30T22:50:52.090Z,12.61
2024-01-30T22:54:53.654Z,12.67
2024-01-30T22:58:55.217Z,12.59
2024-01-30T23:02:57.783Z,12.26
2024-01-30T23:06:59.551Z,12.56
2024-01-30T23:11:01.012Z,12.36
2024-01-30T23:15:03.874Z,12.54
2024-01-30T23:19:05.574Z,12.25
2024-01-30T23:23:09.268Z,12.25
2024-01-30T23:27:10.706Z,12.51
2024-01-30T23:31:12.272Z,12.47
2024-01-30T23:35:13.982Z,12.15
2024-01-30T23:39:15.631Z,12.09
2024-01-30T23:43:17.166Z,12.09
2024-01-30T23:47:18.769Z,12.41
2024-01-30T23:51:20.266Z,12.03
2024-01-30T23:55:21.763Z,12.01
2024-01-30T23:59:23.460Z,12.32
